VDSR

Siem Reap International Airport

Siem Reap, Cambodia
TAF VDSR 151100Z 1512/1606 08006KT 9999 SCT017 SCT040
Issued Valid From Valid To
Nov-15 @ 11:00 UTC
(2 hours ago)
Nov-15 @ 12:00 UTC
(43 minutes ago)
Nov-16 @ 06:00 UTC
(in 17 hours)
Nov-15 @ 12:00 to Nov-16 @ 06:00
TAF VDSR 151100Z 1512/1606 08006KT 9999 SCT017 SCT040
Wind Visibility Clouds
80° at 6 knots 10,000+ meters
  • Scattered at 1,700' AGL
  • Scattered at 4,000' AGL
TAF VDSR 151100Z 1512/1606 08006KT 9999 SCT017 SCT040
Issued Nov-15 @ 11:00 UTC
(2 hours ago)
Valid From Nov-15 @ 12:00 UTC
(43 minutes ago)
Valid To Nov-16 @ 06:00 UTC
(in 17 hours)
Nov-15 @ 12:00 - Nov-16 @ 06:00
Wind Visibility
80° at 6 knots 10,000+ meters
Clouds
  • Scattered at 1,700' AGL
  • Scattered at 4,000' AGL